Aristobulo del Valle, Argentina
Current Conditions -  °F | °C
As of 5:00 PM on Monday 24 Nov 2014 (Local Time) from SARI Reporting Station
Broken Clouds Broken Clouds  
Wind Chill: 88°   Ceiling: 20000
Heat Index: 98°   Visibility: 6mi
Dew Point: 75°   Wind: 6mph
Humidity: 66%   Direction: 50°NE
Pressure: 29.8"   Gusts: NA
Location:  26.92°S, 54.35°W
Report Text: SARI 242000Z 05005KT 9999 SCT030 BKN20031/24 Q1009
Loading
Personal Weather Stations






























Interactive Weather Map New forecast layout! Learn more

10-Day Weather Forecast

Advertisements
Track Severe Weather on mobile